This is the latest recevied weather packets stored in our database for station/object KN4MGS. If no packets are shown the sender has not sent any weather packets the latest 10 day(s).
| Time | Temp. | Humidity | Pressure | Rain* | Wind** | Luminosity | Snow |
|---|---|---|---|---|---|---|---|
| 1777989095 | 20° C | 73% | 1020.8 hPa | 0 mm | - | 540 W/m² | - |
| 1777988791 | 20.56° C | 73% | 1020.7 hPa | 0 mm | - | 547 W/m² | - |
| 1777988489 | 20.56° C | 73% | 1020.7 hPa | 0 mm | - | 499 W/m² | - |
| 1777988186 | 19.44° C | 75% | 1020.6 hPa | 0 mm | - | 492 W/m² | - |
| 1777987881 | 19.44° C | 77% | 1020.8 hPa | 0 mm | - | 439 W/m² | - |
| 1777987577 | 19.44° C | 77% | 1020.8 hPa | 0 mm | - | 383 W/m² | - |
| 1777987275 | 19.44° C | 76% | 1020.8 hPa | 0 mm | - | 407 W/m² | - |
| 1777986972 | 18.89° C | 78% | 1020.9 hPa | 0 mm | - | 357 W/m² | - |
| 1777986670 | 18.89° C | 78% | 1020.8 hPa | 0 mm | - | 320 W/m² | - |
| 1777986368 | 18.89° C | 78% | 1020.9 hPa | 0 mm | - | 296 W/m² | - |
| 1777986066 | 18.33° C | 77% | 1020.8 hPa | 0 mm | - | 306 W/m² | - |
| 1777985762 | 17.22° C | 81% | 1020.9 hPa | 0 mm | - | 294 W/m² | - |
| 1777985459 | 17.22° C | 81% | 1021.1 hPa | 0 mm | - | 241 W/m² | - |
| 1777985155 | 16.67° C | 82% | 1020.8 hPa | 0 mm | - | 258 W/m² | - |
| 1777984852 | 16.67° C | 84% | 1020.8 hPa | 0 mm | - | 244 W/m² | - |
| 1777984548 | 16.11° C | 84% | 1020.9 hPa | 0 mm | - | 227 W/m² | - |
| 1777984244 | 16.11° C | 85% | 1020.8 hPa | 0 mm | - | 123 W/m² | - |
| 1777983941 | 15.56° C | 87% | 1020.8 hPa | 0 mm | - | 50 W/m² | - |
| 1777983639 | 15° C | 88% | 1020.8 hPa | 0 mm | - | 47 W/m² | - |
| 1777983335 | 14.44° C | 90% | 1020.8 hPa | 0 mm | - | 46 W/m² | - |
| 1777983032 | 13.89° C | 91% | 1021 hPa | 0 mm | - | 79 W/m² | - |
| 1777982728 | 12.78° C | 95% | 1020.8 hPa | 0 mm | - | 42 W/m² | - |
| 1777982424 | 12.22° C | 98% | 1020.5 hPa | 0 mm | - | 41 W/m² | - |
| 1777982119 | 11.11° C | 99% | 1020.7 hPa | 0 mm | - | 38 W/m² | - |
| 1777981816 | 10.56° C | 99% | 1020.6 hPa | 0 mm | - | 34 W/m² | - |
* Rain latest hour (hover to see other rain measurements)
** Current wind speed in m/s (hover to see current wind gust speed)